sensor_id;sensor_type;location;lat;lon;timestamp;P1;durP1;ratioP1;P2;durP2;ratioP2
66761;SDS011;53672;48.176;16.338;2023-05-20T00:01:00;14.93;;;8.45;;
66761;SDS011;53672;48.176;16.338;2023-05-20T00:06:00;12.90;;;7.83;;
66761;SDS011;53672;48.176;16.338;2023-05-20T00:11:02;14.77;;;8.60;;
66761;SDS011;53672;48.176;16.338;2023-05-20T00:16:03;14.93;;;8.88;;
66761;SDS011;53672;48.176;16.338;2023-05-20T00:21:04;14.00;;;9.07;;
66761;SDS011;53672;48.176;16.338;2023-05-20T00:26:05;18.23;;;9.50;;
66761;SDS011;53672;48.176;16.338;2023-05-20T00:31:06;15.60;;;9.27;;
66761;SDS011;53672;48.176;16.338;2023-05-20T00:36:06;18.47;;;9.47;;
66761;SDS011;53672;48.176;16.338;2023-05-20T00:41:08;16.60;;;8.80;;
66761;SDS011;53672;48.176;16.338;2023-05-20T00:46:09;14.27;;;8.88;;
66761;SDS011;53672;48.176;16.338;2023-05-20T00:51:10;14.17;;;7.97;;
66761;SDS011;53672;48.176;16.338;2023-05-20T00:56:13;14.82;;;8.40;;
66761;SDS011;53672;48.176;16.338;2023-05-20T01:01:13;15.95;;;8.77;;
66761;SDS011;53672;48.176;16.338;2023-05-20T01:06:14;13.67;;;8.37;;
66761;SDS011;53672;48.176;16.338;2023-05-20T01:11:16;14.10;;;8.23;;
66761;SDS011;53672;48.176;16.338;2023-05-20T01:16:23;14.85;;;8.48;;
66761;SDS011;53672;48.176;16.338;2023-05-20T01:21:23;14.32;;;8.70;;
66761;SDS011;53672;48.176;16.338;2023-05-20T01:26:27;14.57;;;9.15;;
66761;SDS011;53672;48.176;16.338;2023-05-20T01:31:28;15.93;;;8.87;;
66761;SDS011;53672;48.176;16.338;2023-05-20T01:36:32;28.25;;;14.52;;
66761;SDS011;53672;48.176;16.338;2023-05-20T01:41:34;28.63;;;15.07;;
66761;SDS011;53672;48.176;16.338;2023-05-20T01:46:36;29.30;;;15.05;;
66761;SDS011;53672;48.176;16.338;2023-05-20T01:51:37;30.60;;;15.33;;
66761;SDS011;53672;48.176;16.338;2023-05-20T01:56:38;32.33;;;16.07;;
66761;SDS011;53672;48.176;16.338;2023-05-20T02:01:39;31.33;;;16.38;;
66761;SDS011;53672;48.176;16.338;2023-05-20T02:06:39;33.63;;;16.97;;
66761;SDS011;53672;48.176;16.338;2023-05-20T02:11:41;39.80;;;18.67;;
66761;SDS011;53672;48.176;16.338;2023-05-20T02:16:42;38.40;;;19.07;;
66761;SDS011;53672;48.176;16.338;2023-05-20T02:21:42;39.83;;;18.88;;
66761;SDS011;53672;48.176;16.338;2023-05-20T02:26:46;38.40;;;19.02;;
66761;SDS011;53672;48.176;16.338;2023-05-20T02:31:46;38.13;;;18.17;;
66761;SDS011;53672;48.176;16.338;2023-05-20T02:36:47;37.83;;;19.27;;
66761;SDS011;53672;48.176;16.338;2023-05-20T02:41:48;38.27;;;19.43;;
66761;SDS011;53672;48.176;16.338;2023-05-20T02:46:49;39.05;;;19.08;;
66761;SDS011;53672;48.176;16.338;2023-05-20T02:51:50;39.78;;;19.80;;
66761;SDS011;53672;48.176;16.338;2023-05-20T02:56:52;40.60;;;18.60;;
66761;SDS011;53672;48.176;16.338;2023-05-20T03:01:53;38.37;;;17.90;;
66761;SDS011;53672;48.176;16.338;2023-05-20T03:06:53;39.73;;;18.47;;
66761;SDS011;53672;48.176;16.338;2023-05-20T03:11:55;40.77;;;18.70;;
66761;SDS011;53672;48.176;16.338;2023-05-20T03:16:55;41.05;;;19.30;;
66761;SDS011;53672;48.176;16.338;2023-05-20T03:21:56;38.20;;;17.30;;
66761;SDS011;53672;48.176;16.338;2023-05-20T03:26:58;36.87;;;18.13;;
66761;SDS011;53672;48.176;16.338;2023-05-20T03:31:58;38.15;;;18.75;;
66761;SDS011;53672;48.176;16.338;2023-05-20T03:36:58;37.43;;;17.87;;
66761;SDS011;53672;48.176;16.338;2023-05-20T03:42:00;39.97;;;19.00;;
66761;SDS011;53672;48.176;16.338;2023-05-20T03:47:01;36.67;;;17.00;;
66761;SDS011;53672;48.176;16.338;2023-05-20T03:52:01;36.17;;;17.73;;
66761;SDS011;53672;48.176;16.338;2023-05-20T03:57:03;41.73;;;18.47;;
66761;SDS011;53672;48.176;16.338;2023-05-20T04:02:04;39.50;;;18.33;;
66761;SDS011;53672;48.176;16.338;2023-05-20T04:07:05;34.70;;;17.38;;
66761;SDS011;53672;48.176;16.338;2023-05-20T04:12:07;40.73;;;19.40;;
66761;SDS011;53672;48.176;16.338;2023-05-20T04:17:07;31.73;;;14.30;;
66761;SDS011;53672;48.176;16.338;2023-05-20T04:22:07;22.20;;;11.23;;
66761;SDS011;53672;48.176;16.338;2023-05-20T04:27:09;18.73;;;9.70;;
66761;SDS011;53672;48.176;16.338;2023-05-20T04:32:11;18.92;;;10.07;;
66761;SDS011;53672;48.176;16.338;2023-05-20T04:37:12;18.88;;;9.65;;
66761;SDS011;53672;48.176;16.338;2023-05-20T04:42:14;18.37;;;9.67;;
66761;SDS011;53672;48.176;16.338;2023-05-20T04:47:14;17.23;;;9.10;;
66761;SDS011;53672;48.176;16.338;2023-05-20T04:52:15;16.03;;;8.43;;
66761;SDS011;53672;48.176;16.338;2023-05-20T04:57:17;16.10;;;9.10;;
66761;SDS011;53672;48.176;16.338;2023-05-20T05:02:17;19.67;;;9.82;;
66761;SDS011;53672;48.176;16.338;2023-05-20T05:07:18;20.83;;;11.00;;
66761;SDS011;53672;48.176;16.338;2023-05-20T05:12:19;21.13;;;11.23;;
66761;SDS011;53672;48.176;16.338;2023-05-20T05:17:20;22.07;;;11.77;;
66761;SDS011;53672;48.176;16.338;2023-05-20T05:22:20;26.00;;;13.47;;
66761;SDS011;53672;48.176;16.338;2023-05-20T05:27:22;26.53;;;13.00;;
66761;SDS011;53672;48.176;16.338;2023-05-20T05:32:23;25.05;;;13.02;;
66761;SDS011;53672;48.176;16.338;2023-05-20T05:37:23;25.00;;;13.10;;
66761;SDS011;53672;48.176;16.338;2023-05-20T05:42:26;23.10;;;12.10;;
66761;SDS011;53672;48.176;16.338;2023-05-20T05:47:26;21.63;;;12.57;;
66761;SDS011;53672;48.176;16.338;2023-05-20T05:52:27;24.17;;;12.50;;
66761;SDS011;53672;48.176;16.338;2023-05-20T05:57:28;22.87;;;12.63;;
66761;SDS011;53672;48.176;16.338;2023-05-20T06:02:29;24.30;;;11.97;;
66761;SDS011;53672;48.176;16.338;2023-05-20T06:07:29;22.50;;;12.37;;
66761;SDS011;53672;48.176;16.338;2023-05-20T06:12:31;21.33;;;11.55;;
66761;SDS011;53672;48.176;16.338;2023-05-20T06:17:32;22.33;;;12.33;;
66761;SDS011;53672;48.176;16.338;2023-05-20T06:22:32;22.50;;;12.57;;
66761;SDS011;53672;48.176;16.338;2023-05-20T06:27:34;22.57;;;12.53;;
66761;SDS011;53672;48.176;16.338;2023-05-20T06:32:35;23.48;;;12.57;;
66761;SDS011;53672;48.176;16.338;2023-05-20T06:37:35;20.80;;;11.60;;
66761;SDS011;53672;48.176;16.338;2023-05-20T06:42:37;22.83;;;12.23;;
66761;SDS011;53672;48.176;16.338;2023-05-20T06:47:37;22.85;;;13.02;;
66761;SDS011;53672;48.176;16.338;2023-05-20T06:52:38;21.50;;;11.70;;
66761;SDS011;53672;48.176;16.338;2023-05-20T06:57:40;21.83;;;12.63;;
66761;SDS011;53672;48.176;16.338;2023-05-20T07:02:40;23.85;;;12.82;;
66761;SDS011;53672;48.176;16.338;2023-05-20T07:07:41;21.88;;;11.65;;
66761;SDS011;53672;48.176;16.338;2023-05-20T07:12:43;21.63;;;12.57;;
66761;SDS011;53672;48.176;16.338;2023-05-20T07:17:43;21.33;;;12.75;;
66761;SDS011;53672;48.176;16.338;2023-05-20T07:22:44;21.95;;;12.40;;
66761;SDS011;53672;48.176;16.338;2023-05-20T07:27:45;20.47;;;12.40;;
66761;SDS011;53672;48.176;16.338;2023-05-20T07:32:46;20.90;;;12.03;;
66761;SDS011;53672;48.176;16.338;2023-05-20T07:37:47;22.17;;;12.00;;
66761;SDS011;53672;48.176;16.338;2023-05-20T07:42:48;21.77;;;12.57;;
66761;SDS011;53672;48.176;16.338;2023-05-20T07:47:49;20.27;;;11.55;;
66761;SDS011;53672;48.176;16.338;2023-05-20T07:52:49;22.03;;;11.73;;
66761;SDS011;53672;48.176;16.338;2023-05-20T07:57:51;20.00;;;11.57;;
66761;SDS011;53672;48.176;16.338;2023-05-20T08:02:52;21.35;;;12.05;;
66761;SDS011;53672;48.176;16.338;2023-05-20T08:07:52;23.40;;;11.93;;
66761;SDS011;53672;48.176;16.338;2023-05-20T08:12:54;27.30;;;12.13;;
66761;SDS011;53672;48.176;16.338;2023-05-20T08:17:54;19.42;;;11.48;;
66761;SDS011;53672;48.176;16.338;2023-05-20T08:22:55;16.80;;;11.17;;
66761;SDS011;53672;48.176;16.338;2023-05-20T08:27:57;18.27;;;10.90;;
66761;SDS011;53672;48.176;16.338;2023-05-20T08:33:00;17.30;;;10.68;;
66761;SDS011;53672;48.176;16.338;2023-05-20T08:38:00;16.33;;;9.57;;
66761;SDS011;53672;48.176;16.338;2023-05-20T08:43:02;16.50;;;11.10;;
66761;SDS011;53672;48.176;16.338;2023-05-20T08:48:03;21.67;;;11.47;;
66761;SDS011;53672;48.176;16.338;2023-05-20T08:53:04;17.05;;;10.82;;
66761;SDS011;53672;48.176;16.338;2023-05-20T08:58:06;16.10;;;9.57;;
66761;SDS011;53672;48.176;16.338;2023-05-20T09:03:07;16.40;;;9.68;;
66761;SDS011;53672;48.176;16.338;2023-05-20T09:08:08;15.67;;;11.13;;
66761;SDS011;53672;48.176;16.338;2023-05-20T09:13:10;14.50;;;10.10;;
66761;SDS011;53672;48.176;16.338;2023-05-20T09:18:11;16.10;;;9.88;;
66761;SDS011;53672;48.176;16.338;2023-05-20T09:23:12;16.40;;;10.65;;
66761;SDS011;53672;48.176;16.338;2023-05-20T09:28:14;15.77;;;10.60;;
66761;SDS011;53672;48.176;16.338;2023-05-20T09:33:14;17.17;;;11.63;;
66761;SDS011;53672;48.176;16.338;2023-05-20T09:38:15;15.85;;;10.43;;
66761;SDS011;53672;48.176;16.338;2023-05-20T09:43:18;14.88;;;10.35;;
66761;SDS011;53672;48.176;16.338;2023-05-20T09:48:19;15.52;;;10.35;;
66761;SDS011;53672;48.176;16.338;2023-05-20T09:53:20;13.00;;;10.17;;
66761;SDS011;53672;48.176;16.338;2023-05-20T09:58:24;16.08;;;11.23;;
66761;SDS011;53672;48.176;16.338;2023-05-20T10:03:24;12.33;;;10.50;;
66761;SDS011;53672;48.176;16.338;2023-05-20T10:13:54;13.47;;;8.77;;
66761;SDS011;53672;48.176;16.338;2023-05-20T10:19:22;10.88;;;9.10;;
66761;SDS011;53672;48.176;16.338;2023-05-20T10:24:30;11.52;;;9.80;;
66761;SDS011;53672;48.176;16.338;2023-05-20T10:29:43;12.77;;;9.85;;
66761;SDS011;53672;48.176;16.338;2023-05-20T10:34:45;12.25;;;9.50;;
66761;SDS011;53672;48.176;16.338;2023-05-20T10:39:46;13.03;;;9.60;;
66761;SDS011;53672;48.176;16.338;2023-05-20T10:44:48;14.23;;;10.20;;
66761;SDS011;53672;48.176;16.338;2023-05-20T10:49:48;13.77;;;10.30;;
66761;SDS011;53672;48.176;16.338;2023-05-20T10:54:53;13.77;;;10.13;;
66761;SDS011;53672;48.176;16.338;2023-05-20T10:59:56;13.57;;;9.95;;
66761;SDS011;53672;48.176;16.338;2023-05-20T11:04:57;14.30;;;10.30;;
66761;SDS011;53672;48.176;16.338;2023-05-20T11:09:58;13.02;;;9.65;;
66761;SDS011;53672;48.176;16.338;2023-05-20T11:15:00;13.10;;;10.57;;
66761;SDS011;53672;48.176;16.338;2023-05-20T11:20:00;13.63;;;9.82;;
66761;SDS011;53672;48.176;16.338;2023-05-20T11:25:03;11.68;;;9.40;;
66761;SDS011;53672;48.176;16.338;2023-05-20T11:30:06;13.17;;;9.70;;
66761;SDS011;53672;48.176;16.338;2023-05-20T11:35:18;10.75;;;8.85;;
66761;SDS011;53672;48.176;16.338;2023-05-20T11:40:22;11.70;;;8.93;;
66761;SDS011;53672;48.176;16.338;2023-05-20T11:45:25;11.88;;;9.13;;
66761;SDS011;53672;48.176;16.338;2023-05-20T11:50:26;12.23;;;9.43;;
66761;SDS011;53672;48.176;16.338;2023-05-20T11:55:26;15.30;;;9.80;;
66761;SDS011;53672;48.176;16.338;2023-05-20T12:00:28;11.20;;;8.50;;
66761;SDS011;53672;48.176;16.338;2023-05-20T12:05:29;12.57;;;8.93;;
66761;SDS011;53672;48.176;16.338;2023-05-20T12:10:29;12.63;;;9.27;;
66761;SDS011;53672;48.176;16.338;2023-05-20T12:15:31;11.40;;;8.47;;
66761;SDS011;53672;48.176;16.338;2023-05-20T12:20:31;11.98;;;9.25;;
66761;SDS011;53672;48.176;16.338;2023-05-20T12:25:32;12.50;;;8.30;;
66761;SDS011;53672;48.176;16.338;2023-05-20T12:30:34;12.33;;;9.63;;
66761;SDS011;53672;48.176;16.338;2023-05-20T12:35:37;11.30;;;7.97;;
66761;SDS011;53672;48.176;16.338;2023-05-20T12:40:39;9.65;;;7.30;;
66761;SDS011;53672;48.176;16.338;2023-05-20T12:45:41;10.52;;;6.57;;
66761;SDS011;53672;48.176;16.338;2023-05-20T12:50:42;11.17;;;7.13;;
66761;SDS011;53672;48.176;16.338;2023-05-20T12:55:42;9.87;;;6.70;;
66761;SDS011;53672;48.176;16.338;2023-05-20T13:00:44;10.00;;;6.87;;
66761;SDS011;53672;48.176;16.338;2023-05-20T13:05:45;11.05;;;7.20;;
66761;SDS011;53672;48.176;16.338;2023-05-20T13:10:45;9.73;;;6.93;;
66761;SDS011;53672;48.176;16.338;2023-05-20T13:15:47;8.67;;;6.30;;
66761;SDS011;53672;48.176;16.338;2023-05-20T13:20:48;9.80;;;6.60;;
66761;SDS011;53672;48.176;16.338;2023-05-20T13:25:48;10.90;;;6.70;;
66761;SDS011;53672;48.176;16.338;2023-05-20T13:30:50;10.67;;;7.07;;
66761;SDS011;53672;48.176;16.338;2023-05-20T13:35:50;10.65;;;6.93;;
66761;SDS011;53672;48.176;16.338;2023-05-20T13:40:51;9.07;;;6.40;;
66761;SDS011;53672;48.176;16.338;2023-05-20T13:45:53;9.93;;;6.90;;
66761;SDS011;53672;48.176;16.338;2023-05-20T13:50:53;9.93;;;6.77;;
66761;SDS011;53672;48.176;16.338;2023-05-20T13:55:54;11.77;;;6.83;;
66761;SDS011;53672;48.176;16.338;2023-05-20T14:00:56;11.13;;;6.63;;
66761;SDS011;53672;48.176;16.338;2023-05-20T14:05:57;10.35;;;6.53;;
66761;SDS011;53672;48.176;16.338;2023-05-20T14:10:58;12.15;;;7.45;;
66761;SDS011;53672;48.176;16.338;2023-05-20T14:16:00;13.40;;;6.93;;
66761;SDS011;53672;48.176;16.338;2023-05-20T14:21:00;10.68;;;6.65;;
66761;SDS011;53672;48.176;16.338;2023-05-20T14:26:01;11.57;;;7.20;;
66761;SDS011;53672;48.176;16.338;2023-05-20T14:31:03;10.83;;;7.03;;
66761;SDS011;53672;48.176;16.338;2023-05-20T14:36:03;12.00;;;7.60;;
66761;SDS011;53672;48.176;16.338;2023-05-20T14:41:04;10.90;;;7.18;;
66761;SDS011;53672;48.176;16.338;2023-05-20T14:46:06;12.87;;;6.90;;
66761;SDS011;53672;48.176;16.338;2023-05-20T14:51:06;10.53;;;7.07;;
66761;SDS011;53672;48.176;16.338;2023-05-20T14:56:07;12.23;;;7.43;;
66761;SDS011;53672;48.176;16.338;2023-05-20T15:01:09;10.90;;;6.77;;
66761;SDS011;53672;48.176;16.338;2023-05-20T15:06:09;10.57;;;7.13;;
66761;SDS011;53672;48.176;16.338;2023-05-20T15:11:10;10.80;;;7.30;;
66761;SDS011;53672;48.176;16.338;2023-05-20T15:16:11;9.97;;;6.70;;
66761;SDS011;53672;48.176;16.338;2023-05-20T15:21:12;10.45;;;7.13;;
66761;SDS011;53672;48.176;16.338;2023-05-20T15:26:12;12.20;;;7.30;;
66761;SDS011;53672;48.176;16.338;2023-05-20T15:31:14;12.07;;;7.93;;
66761;SDS011;53672;48.176;16.338;2023-05-20T15:36:14;11.48;;;7.38;;
66761;SDS011;53672;48.176;16.338;2023-05-20T15:41:15;10.03;;;7.43;;
66761;SDS011;53672;48.176;16.338;2023-05-20T15:46:17;10.67;;;6.77;;
66761;SDS011;53672;48.176;16.338;2023-05-20T15:51:17;10.80;;;7.05;;
66761;SDS011;53672;48.176;16.338;2023-05-20T15:56:18;13.33;;;7.20;;
66761;SDS011;53672;48.176;16.338;2023-05-20T16:01:20;11.77;;;7.37;;
66761;SDS011;53672;48.176;16.338;2023-05-20T16:06:20;10.30;;;6.90;;
66761;SDS011;53672;48.176;16.338;2023-05-20T16:11:21;13.02;;;7.60;;
66761;SDS011;53672;48.176;16.338;2023-05-20T16:16:23;11.77;;;7.13;;
66761;SDS011;53672;48.176;16.338;2023-05-20T16:21:24;11.50;;;7.32;;
66761;SDS011;53672;48.176;16.338;2023-05-20T16:26:24;10.03;;;6.80;;
66761;SDS011;53672;48.176;16.338;2023-05-20T16:31:26;10.83;;;6.90;;
66761;SDS011;53672;48.176;16.338;2023-05-20T16:36:27;12.77;;;7.60;;
66761;SDS011;53672;48.176;16.338;2023-05-20T16:41:27;11.53;;;7.53;;
66761;SDS011;53672;48.176;16.338;2023-05-20T16:46:29;11.83;;;7.80;;
66761;SDS011;53672;48.176;16.338;2023-05-20T16:51:29;12.73;;;7.45;;
66761;SDS011;53672;48.176;16.338;2023-05-20T16:56:30;10.52;;;7.68;;
66761;SDS011;53672;48.176;16.338;2023-05-20T17:01:32;12.07;;;7.23;;
66761;SDS011;53672;48.176;16.338;2023-05-20T17:06:32;11.70;;;7.73;;
66761;SDS011;53672;48.176;16.338;2023-05-20T17:11:33;10.82;;;6.68;;
66761;SDS011;53672;48.176;16.338;2023-05-20T17:16:35;10.88;;;7.20;;
66761;SDS011;53672;48.176;16.338;2023-05-20T17:21:35;10.67;;;6.90;;
66761;SDS011;53672;48.176;16.338;2023-05-20T17:26:36;11.83;;;8.17;;
66761;SDS011;53672;48.176;16.338;2023-05-20T17:31:38;13.37;;;8.23;;
66761;SDS011;53672;48.176;16.338;2023-05-20T17:36:38;13.40;;;8.27;;
66761;SDS011;53672;48.176;16.338;2023-05-20T17:41:39;12.43;;;8.60;;
66761;SDS011;53672;48.176;16.338;2023-05-20T17:46:40;13.00;;;8.87;;
66761;SDS011;53672;48.176;16.338;2023-05-20T17:51:41;15.57;;;8.50;;
66761;SDS011;53672;48.176;16.338;2023-05-20T17:56:41;13.37;;;8.33;;
66761;SDS011;53672;48.176;16.338;2023-05-20T18:01:43;12.77;;;8.90;;
66761;SDS011;53672;48.176;16.338;2023-05-20T18:06:44;13.57;;;8.45;;
66761;SDS011;53672;48.176;16.338;2023-05-20T18:11:44;15.20;;;8.60;;
66761;SDS011;53672;48.176;16.338;2023-05-20T18:16:46;14.13;;;8.87;;
66761;SDS011;53672;48.176;16.338;2023-05-20T18:21:47;13.37;;;9.10;;
66761;SDS011;53672;48.176;16.338;2023-05-20T18:26:47;14.93;;;8.90;;
66761;SDS011;53672;48.176;16.338;2023-05-20T18:31:49;16.90;;;8.60;;
66761;SDS011;53672;48.176;16.338;2023-05-20T18:36:50;13.97;;;8.83;;
66761;SDS011;53672;48.176;16.338;2023-05-20T18:41:50;14.57;;;9.00;;
66761;SDS011;53672;48.176;16.338;2023-05-20T18:46:52;16.93;;;8.90;;
66761;SDS011;53672;48.176;16.338;2023-05-20T18:51:52;17.40;;;9.45;;
66761;SDS011;53672;48.176;16.338;2023-05-20T18:56:53;15.53;;;9.23;;
66761;SDS011;53672;48.176;16.338;2023-05-20T19:01:55;14.53;;;9.47;;
66761;SDS011;53672;48.176;16.338;2023-05-20T19:06:56;16.73;;;9.70;;
66761;SDS011;53672;48.176;16.338;2023-05-20T19:11:56;17.47;;;10.17;;
66761;SDS011;53672;48.176;16.338;2023-05-20T19:16:58;18.27;;;10.50;;
66761;SDS011;53672;48.176;16.338;2023-05-20T19:21:59;18.02;;;10.18;;
66761;SDS011;53672;48.176;16.338;2023-05-20T19:26:59;16.90;;;10.17;;
66761;SDS011;53672;48.176;16.338;2023-05-20T19:32:01;16.73;;;10.63;;
66761;SDS011;53672;48.176;16.338;2023-05-20T19:37:02;16.60;;;10.82;;
66761;SDS011;53672;48.176;16.338;2023-05-20T19:42:02;17.67;;;11.20;;
66761;SDS011;53672;48.176;16.338;2023-05-20T19:47:04;19.47;;;12.17;;
66761;SDS011;53672;48.176;16.338;2023-05-20T19:52:05;18.42;;;11.70;;
66761;SDS011;53672;48.176;16.338;2023-05-20T19:57:05;18.97;;;12.77;;
66761;SDS011;53672;48.176;16.338;2023-05-20T20:02:07;20.53;;;12.07;;
66761;SDS011;53672;48.176;16.338;2023-05-20T20:07:08;22.20;;;13.18;;
66761;SDS011;53672;48.176;16.338;2023-05-20T20:12:08;24.47;;;14.47;;
66761;SDS011;53672;48.176;16.338;2023-05-20T20:17:10;20.33;;;12.73;;
66761;SDS011;53672;48.176;16.338;2023-05-20T20:22:11;21.25;;;13.60;;
66761;SDS011;53672;48.176;16.338;2023-05-20T20:27:11;22.70;;;12.93;;
66761;SDS011;53672;48.176;16.338;2023-05-20T20:32:13;21.00;;;13.30;;
66761;SDS011;53672;48.176;16.338;2023-05-20T20:37:14;21.87;;;14.43;;
66761;SDS011;53672;48.176;16.338;2023-05-20T20:42:14;24.48;;;14.77;;
66761;SDS011;53672;48.176;16.338;2023-05-20T20:47:16;21.55;;;13.68;;
66761;SDS011;53672;48.176;16.338;2023-05-20T20:52:17;24.77;;;14.73;;
66761;SDS011;53672;48.176;16.338;2023-05-20T20:57:17;22.33;;;13.50;;
66761;SDS011;53672;48.176;16.338;2023-05-20T21:02:19;25.00;;;14.80;;
66761;SDS011;53672;48.176;16.338;2023-05-20T21:07:19;25.02;;;14.88;;
66761;SDS011;53672;48.176;16.338;2023-05-20T21:12:20;24.77;;;15.07;;
66761;SDS011;53672;48.176;16.338;2023-05-20T21:17:22;26.30;;;14.70;;
66761;SDS011;53672;48.176;16.338;2023-05-20T21:22:22;25.92;;;15.60;;
66761;SDS011;53672;48.176;16.338;2023-05-20T21:27:22;23.70;;;14.40;;
66761;SDS011;53672;48.176;16.338;2023-05-20T21:32:24;23.13;;;14.93;;
66761;SDS011;53672;48.176;16.338;2023-05-20T21:37:25;23.40;;;14.93;;
66761;SDS011;53672;48.176;16.338;2023-05-20T21:42:25;24.70;;;15.05;;
66761;SDS011;53672;48.176;16.338;2023-05-20T21:47:27;25.65;;;15.75;;
66761;SDS011;53672;48.176;16.338;2023-05-20T21:52:28;23.93;;;14.77;;
66761;SDS011;53672;48.176;16.338;2023-05-20T21:57:28;26.70;;;15.23;;
66761;SDS011;53672;48.176;16.338;2023-05-20T22:02:30;26.67;;;15.17;;
66761;SDS011;53672;48.176;16.338;2023-05-20T22:07:30;26.23;;;15.50;;
66761;SDS011;53672;48.176;16.338;2023-05-20T22:12:31;28.63;;;15.23;;
66761;SDS011;53672;48.176;16.338;2023-05-20T22:17:33;26.65;;;15.50;;
66761;SDS011;53672;48.176;16.338;2023-05-20T22:22:34;25.88;;;15.65;;
66761;SDS011;53672;48.176;16.338;2023-05-20T22:27:34;25.47;;;15.77;;
66761;SDS011;53672;48.176;16.338;2023-05-20T22:32:36;24.23;;;14.67;;
66761;SDS011;53672;48.176;16.338;2023-05-20T22:37:37;25.65;;;15.02;;
66761;SDS011;53672;48.176;16.338;2023-05-20T22:42:37;27.03;;;14.80;;
66761;SDS011;53672;48.176;16.338;2023-05-20T22:47:39;23.97;;;14.83;;
66761;SDS011;53672;48.176;16.338;2023-05-20T22:52:39;26.17;;;15.27;;
66761;SDS011;53672;48.176;16.338;2023-05-20T22:57:40;24.50;;;15.03;;
66761;SDS011;53672;48.176;16.338;2023-05-20T23:02:42;25.20;;;14.90;;
66761;SDS011;53672;48.176;16.338;2023-05-20T23:07:42;23.13;;;13.98;;
66761;SDS011;53672;48.176;16.338;2023-05-20T23:12:43;22.43;;;13.93;;
66761;SDS011;53672;48.176;16.338;2023-05-20T23:17:45;26.77;;;15.60;;
66761;SDS011;53672;48.176;16.338;2023-05-20T23:22:45;25.23;;;15.00;;
66761;SDS011;53672;48.176;16.338;2023-05-20T23:27:46;26.40;;;14.47;;
66761;SDS011;53672;48.176;16.338;2023-05-20T23:32:47;24.88;;;14.02;;
66761;SDS011;53672;48.176;16.338;2023-05-20T23:37:48;25.97;;;14.27;;
66761;SDS011;53672;48.176;16.338;2023-05-20T23:42:49;23.65;;;14.00;;
66761;SDS011;53672;48.176;16.338;2023-05-20T23:47:51;24.63;;;13.73;;
66761;SDS011;53672;48.176;16.338;2023-05-20T23:52:51;26.30;;;15.10;;
66761;SDS011;53672;48.176;16.338;2023-05-20T23:57:52;23.80;;;13.80;;
